Time;durP1;ratioP1;P1;durP2;ratioP2;P2;SDS_P1;SDS_P2;PMS_P1;PMS_P2;Temp;Humidity;BMP_temperature;BMP_pressure;BME280_temperature;BME280_humidity;BME280_pressure;Samples;Min_cycle;Max_cycle;Signal;HPM_P1;HPM_P2
2022/06/14 00:01:36;;;;;;;2.38;1.25;;;;;;;;;;5070933;27;95331;-72
2022/06/14 00:04:03;;;;;;;2.60;1.60;;;;;;;;;;5070914;27;95722;-71
2022/06/14 00:06:31;;;;;;;3.95;1.40;;;;;;;;;;5062110;27;97514;-71
2022/06/14 00:08:57;;;;;;;1.33;1.02;;;;;;;;;;5065591;27;95399;-71
2022/06/14 00:11:25;;;;;;;2.33;1.20;;;;;;;;;;5072254;27;96737;-71
2022/06/14 00:13:52;;;;;;;1.45;1.35;;;;;;;;;;5055800;27;95430;-71
2022/06/14 00:16:20;;;;;;;1.90;1.23;;;;;;;;;;5071606;27;96401;-71
2022/06/14 00:18:47;;;;;;;3.97;1.23;;;;;;;;;;5060712;27;96532;-71
2022/06/14 00:21:14;;;;;;;2.88;1.45;;;;;;;;;;5056438;27;95389;-71
2022/06/14 00:23:41;;;;;;;1.52;0.98;;;;;;;;;;5070723;27;96691;-71
2022/06/14 00:26:09;;;;;;;3.03;1.20;;;;;;;;;;5071390;27;95223;-71
2022/06/14 00:28:39;;;;;;;3.80;1.10;;;;;;;;;;5068886;27;95979;-71
2022/06/14 00:31:08;;;;;;;2.42;1.05;;;;;;;;;;5044558;27;95773;-72
2022/06/14 00:33:35;;;;;;;4.28;1.27;;;;;;;;;;5075807;27;97682;-71
2022/06/14 00:36:10;;;;;;;2.40;1.27;;;;;;;;;;5073688;27;96870;-73
2022/06/14 00:38:39;;;;;;;4.05;1.65;;;;;;;;;;5063555;27;97391;-72
2022/06/14 00:41:14;;;;;;;4.35;1.27;;;;;;;;;;5073346;27;95045;-72
2022/06/14 00:43:48;;;;;;;2.85;1.45;;;;;;;;;;5073884;27;96256;-72
2022/06/14 00:46:21;;;;;;;1.63;1.17;;;;;;;;;;5069224;27;96642;-72
2022/06/14 00:48:50;;;;;;;3.13;1.10;;;;;;;;;;5071778;27;95310;-71
2022/06/14 00:51:19;;;;;;;3.03;1.63;;;;;;;;;;5071457;27;96862;-71
2022/06/14 00:53:48;;;;;;;3.97;1.25;;;;;;;;;;5071173;27;97025;-71
2022/06/14 00:56:18;;;;;;;3.05;1.33;;;;;;;;;;5076415;27;95192;-72
2022/06/14 00:58:54;;;;;;;1.63;1.02;;;;;;;;;;5070611;27;96854;-70
2022/06/14 01:01:31;;;;;;;3.38;1.40;;;;;;;;;;5072987;27;95305;-73
2022/06/14 01:04:06;;;;;;;1.63;1.25;;;;;;;;;;5073108;27;96864;-72
2022/06/14 01:06:48;;;;;;;4.45;1.23;;;;;;;;;;5073161;27;97452;-72
2022/06/14 01:09:25;;;;;;;2.28;1.50;;;;;;;;;;5051677;27;96946;-72
2022/06/14 01:11:55;;;;;;;2.22;1.30;;;;;;;;;;5070789;27;96846;-72
2022/06/14 01:14:24;;;;;;;2.80;1.20;;;;;;;;;;5051362;27;95156;-71
2022/06/14 01:16:50;;;;;;;4.13;1.35;;;;;;;;;;5055529;27;96290;-72
2022/06/14 01:19:19;;;;;;;2.67;1.23;;;;;;;;;;5065781;27;97273;-72
2022/06/14 01:21:49;;;;;;;3.80;1.60;;;;;;;;;;5054617;27;95192;-72
2022/06/14 01:24:16;;;;;;;1.23;1.10;;;;;;;;;;5051472;27;96179;-72
2022/06/14 01:26:42;;;;;;;3.15;1.08;;;;;;;;;;5051506;27;97560;-71
2022/06/14 01:29:09;;;;;;;2.80;1.52;;;;;;;;;;5060727;27;95608;-72
2022/06/14 01:31:35;;;;;;;2.72;1.25;;;;;;;;;;5054863;27;96880;-72
2022/06/14 01:34:04;;;;;;;3.05;1.38;;;;;;;;;;5072160;27;97501;-72
2022/06/14 01:36:33;;;;;;;2.45;1.23;;;;;;;;;;5056610;27;96296;-71
2022/06/14 01:39:01;;;;;;;1.50;1.17;;;;;;;;;;5062815;27;96935;-72
2022/06/14 01:41:31;;;;;;;2.47;1.40;;;;;;;;;;5070810;27;95134;-72
2022/06/14 01:44:04;;;;;;;3.95;1.55;;;;;;;;;;5073429;27;95473;-71
2022/06/14 01:46:30;;;;;;;;;;;;;;;;;;5076043;27;97913;-72
2022/06/14 01:51:59;;;;;;;2.47;1.27;;;;;;;;;;5073630;27;95823;-72
2022/06/14 01:54:44;;;;;;;1.55;1.00;;;;;;;;;;5075424;27;97897;-71
2022/06/14 01:57:17;;;;;;;2.05;1.50;;;;;;;;;;5075613;27;95199;-72
2022/06/14 01:59:50;;;;;;;7.15;1.55;;;;;;;;;;5074446;27;97047;-72
2022/06/14 02:02:16;;;;;;;3.53;1.27;;;;;;;;;;5078513;27;98587;-72
2022/06/14 02:04:43;;;;;;;4.30;1.67;;;;;;;;;;5056100;27;95745;-71
2022/06/14 02:07:09;;;;;;;2.95;1.55;;;;;;;;;;5074703;27;97281;-71
2022/06/14 02:09:54;;;;;;;2.28;1.30;;;;;;;;;;5073378;27;95615;-71
2022/06/14 02:12:50;;;;;;;3.22;1.52;;;;;;;;;;5074789;27;96817;-71
2022/06/14 02:15:23;;;;;;;2.75;1.40;;;;;;;;;;5056533;27;97332;-72
2022/06/14 02:17:56;;;;;;;1.33;1.17;;;;;;;;;;5074751;27;96199;-71
2022/06/14 02:20:27;;;;;;;2.28;1.30;;;;;;;;;;5063111;27;96338;-72
2022/06/14 02:22:58;;;;;;;4.53;1.38;;;;;;;;;;5054687;27;95853;-72
2022/06/14 02:25:28;;;;;;;4.40;1.60;;;;;;;;;;5038990;27;95325;-71
2022/06/14 02:27:57;;;;;;;1.20;1.10;;;;;;;;;;5054841;27;97192;-71
2022/06/14 02:30:26;;;;;;;1.48;1.05;;;;;;;;;;5045099;27;95478;-72
2022/06/14 02:33:05;;;;;;;1.50;1.10;;;;;;;;;;5069479;27;96815;-71
2022/06/14 02:35:36;;;;;;;1.33;1.02;;;;;;;;;;5074113;27;97387;-71
2022/06/14 02:38:10;;;;;;;6.10;1.58;;;;;;;;;;5062938;27;95227;-71
2022/06/14 02:40:38;;;;;;;1.20;1.02;;;;;;;;;;5066875;27;96874;-72
2022/06/14 02:43:11;;;;;;;1.70;1.10;;;;;;;;;;5074260;27;96220;-72
2022/06/14 02:45:46;;;;;;;1.40;1.10;;;;;;;;;;5074122;27;95262;-71
2022/06/14 02:48:19;;;;;;;1.80;1.42;;;;;;;;;;5077321;27;96824;-71
2022/06/14 02:50:49;;;;;;;1.40;1.08;;;;;;;;;;5072361;27;96506;-71
2022/06/14 02:53:20;;;;;;;1.67;1.10;;;;;;;;;;5073672;27;96085;-72
2022/06/14 02:55:48;;;;;;;3.25;1.50;;;;;;;;;;5073347;27;96361;-71
2022/06/14 02:58:23;;;;;;;2.65;1.40;;;;;;;;;;5056874;27;95470;-71
2022/06/14 03:00:56;;;;;;;1.63;1.20;;;;;;;;;;5073424;27;97016;-72
2022/06/14 03:03:27;;;;;;;2.53;1.20;;;;;;;;;;5072393;27;96447;-71
2022/06/14 03:06:01;;;;;;;2.45;1.33;;;;;;;;;;5073164;27;97430;-71
2022/06/14 03:08:43;;;;;;;0.95;0.90;;;;;;;;;;5074042;27;96645;-71
2022/06/14 03:11:16;;;;;;;2.20;1.47;;;;;;;;;;5076528;27;97269;-71
2022/06/14 03:14:09;;;;;;;1.48;1.17;;;;;;;;;;5075067;27;96755;-73
2022/06/14 03:16:53;;;;;;;2.17;1.15;;;;;;;;;;5049506;27;97390;-72
2022/06/14 03:19:26;;;;;;;1.55;1.20;;;;;;;;;;5049035;27;96453;-71
2022/06/14 03:21:59;;;;;;;1.70;1.20;;;;;;;;;;5065469;27;96240;-71
2022/06/14 03:24:26;;;;;;;1.27;1.15;;;;;;;;;;5069192;27;97341;-72
2022/06/14 03:26:52;;;;;;;1.38;1.05;;;;;;;;;;5058254;27;95108;-72
2022/06/14 03:29:33;;;;;;;4.60;1.30;;;;;;;;;;5054203;27;96573;-72
2022/06/14 03:32:05;;;;;;;1.85;0.90;;;;;;;;;;5075132;27;96165;-71
2022/06/14 03:34:47;;;;;;;3.25;1.30;;;;;;;;;;5068049;27;96816;-72
2022/06/14 03:37:14;;;;;;;2.33;1.10;;;;;;;;;;5053027;27;97358;-71
2022/06/14 03:39:47;;;;;;;1.45;1.17;;;;;;;;;;5053709;27;95228;-71
2022/06/14 03:42:14;;;;;;;2.65;1.10;;;;;;;;;;5067734;27;96821;-71
2022/06/14 03:44:40;;;;;;;1.95;1.10;;;;;;;;;;5073207;27;97547;-72
2022/06/14 03:47:15;;;;;;;1.67;1.38;;;;;;;;;;5062557;27;95198;-71
2022/06/14 03:49:44;;;;;;;1.15;1.05;;;;;;;;;;5053183;27;96759;-71
2022/06/14 03:52:20;;;;;;;1.63;1.10;;;;;;;;;;5062684;27;97331;-71
2022/06/14 03:55:06;;;;;;;1.10;1.00;;;;;;;;;;5062338;27;95262;-71
2022/06/14 03:57:35;;;;;;;2.22;1.20;;;;;;;;;;5051756;27;96228;-72
2022/06/14 04:00:10;;;;;;;1.10;1.00;;;;;;;;;;5052395;27;95517;-72
2022/06/14 04:02:55;;;;;;;1.70;0.85;;;;;;;;;;5066373;27;94997;-72
2022/06/14 04:05:25;;;;;;;1.85;1.08;;;;;;;;;;5068301;27;96253;-72
2022/06/14 04:07:58;;;;;;;1.25;0.98;;;;;;;;;;5053105;27;95294;-72
2022/06/14 04:10:27;;;;;;;1.58;1.30;;;;;;;;;;5053238;27;96026;-72
2022/06/14 04:13:06;;;;;;;2.22;1.17;;;;;;;;;;5067962;27;97273;-72
2022/06/14 04:15:36;;;;;;;4.43;1.30;;;;;;;;;;5073416;27;95234;-72
2022/06/14 04:18:34;;;;;;;3.80;1.10;;;;;;;;;;5071820;27;96973;-72
2022/06/14 04:20:59;;;;;;;2.38;1.23;;;;;;;;;;5052637;27;95332;-72
2022/06/14 04:23:39;;;;;;;1.45;1.10;;;;;;;;;;5069963;27;96530;-71
2022/06/14 04:26:14;;;;;;;0.93;0.80;;;;;;;;;;5072650;27;97351;-72
2022/06/14 19:27:53;;;;;;;1.73;1.20;;;;;;;;;;5057982;27;95458;-82
2022/06/14 19:30:22;;;;;;;1.20;1.10;;;;;;;;;;5042379;27;96050;-73
2022/06/14 19:32:53;;;;;;;1.83;1.05;;;;;;;;;;5044323;27;95597;-73
2022/06/14 19:35:33;;;;;;;2.55;1.33;;;;;;;;;;5042872;27;96648;-73
2022/06/14 19:38:01;;;;;;;1.65;1.20;;;;;;;;;;5026198;28;97184;-73
2022/06/14 19:40:30;;;;;;;1.75;1.20;;;;;;;;;;5040843;27;95774;-73
2022/06/14 19:43:01;;;;;;;2.25;1.20;;;;;;;;;;5045765;27;95893;-71
2022/06/14 19:45:29;;;;;;;1.88;1.40;;;;;;;;;;5045230;27;97372;-73
2022/06/14 19:48:08;;;;;;;2.22;1.30;;;;;;;;;;5047109;27;95337;-72
2022/06/14 19:50:48;;;;;;;1.98;1.35;;;;;;;;;;5030829;27;97704;-73
2022/06/14 19:53:20;;;;;;;6.00;1.83;;;;;;;;;;5025407;28;95462;-73
2022/06/14 19:55:51;;;;;;;2.92;1.60;;;;;;;;;;5038122;27;95612;-73
2022/06/14 19:58:29;;;;;;;4.33;1.70;;;;;;;;;;5045707;27;97372;-74
2022/06/14 20:01:02;;;;;;;2.50;1.30;;;;;;;;;;5043070;27;95897;-73
2022/06/14 20:03:33;;;;;;;2.42;1.58;;;;;;;;;;5045866;27;96765;-73
2022/06/14 20:06:01;;;;;;;2.38;1.50;;;;;;;;;;5043596;27;96304;-73
2022/06/14 20:08:34;;;;;;;3.55;1.90;;;;;;;;;;5035211;27;96672;-73
2022/06/14 20:11:02;;;;;;;2.65;1.48;;;;;;;;;;5047557;27;96242;-73
2022/06/14 20:13:34;;;;;;;2.08;1.42;;;;;;;;;;5044440;27;95408;-73
2022/06/14 20:16:08;;;;;;;2.08;1.33;;;;;;;;;;5042420;27;96718;-73
2022/06/14 20:18:36;;;;;;;4.90;1.73;;;;;;;;;;5032597;27;97312;-73
2022/06/14 20:21:04;;;;;;;2.42;1.45;;;;;;;;;;5029107;27;95482;-72
2022/06/14 20:23:32;;;;;;;1.58;1.23;;;;;;;;;;5044494;27;96881;-73
2022/06/14 20:25:59;;;;;;;1.90;1.40;;;;;;;;;;5036912;27;96226;-72
2022/06/14 20:28:28;;;;;;;3.83;1.73;;;;;;;;;;5036433;27;95168;-73
2022/06/14 20:30:58;;;;;;;2.45;1.40;;;;;;;;;;5029565;27;97067;-73
2022/06/14 20:33:25;;;;;;;1.85;1.50;;;;;;;;;;5030978;27;97255;-72
2022/06/14 20:35:54;;;;;;;1.67;1.30;;;;;;;;;;5043980;27;96809;-72
2022/06/14 20:38:20;;;;;;;4.45;1.77;;;;;;;;;;5031873;27;97608;-72
2022/06/14 20:40:47;;;;;;;2.63;1.60;;;;;;;;;;5028466;28;95310;-72
2022/06/14 20:43:18;;;;;;;3.33;1.48;;;;;;;;;;5024474;28;96728;-72
2022/06/14 20:45:46;;;;;;;2.47;1.30;;;;;;;;;;5031474;28;97360;-72
2022/06/14 20:48:17;;;;;;;1.88;1.48;;;;;;;;;;5029265;27;95601;-73
2022/06/14 20:50:44;;;;;;;;;;;;;;;;;;5031009;28;96780;-72
2022/06/14 20:53:11;;;;;;;2.65;1.50;;;;;;;;;;5029825;27;126781;-71
2022/06/14 20:55:39;;;;;;;2.83;1.75;;;;;;;;;;5034224;27;95479;-72
2022/06/14 20:58:07;;;;;;;3.97;1.80;;;;;;;;;;5027278;27;97277;-73
2022/06/14 21:00:34;;;;;;;2.10;1.33;;;;;;;;;;5016606;28;95247;-73
2022/06/14 21:03:02;;;;;;;2.78;1.88;;;;;;;;;;5028946;27;97581;-72
2022/06/14 21:05:29;;;;;;;2.42;1.52;;;;;;;;;;5031252;27;96184;-72
2022/06/14 21:07:56;;;;;;;2.20;1.58;;;;;;;;;;5030923;27;95424;-72
2022/06/14 21:13:19;;;;;;;6.40;2.03;;;;;;;;;;5018184;28;97450;-72
2022/06/14 21:15:57;;;;;;;2.75;1.60;;;;;;;;;;5024044;28;97008;-72
2022/06/14 21:18:24;;;;;;;3.00;1.77;;;;;;;;;;5034426;27;95905;-72
2022/06/14 21:20:51;;;;;;;6.80;2.30;;;;;;;;;;5029347;27;97393;-72
2022/06/14 21:23:19;;;;;;;5.28;2.20;;;;;;;;;;5031542;27;96763;-72
2022/06/14 21:25:46;;;;;;;3.65;1.90;;;;;;;;;;5031067;27;97656;-72
2022/06/14 21:28:13;;;;;;;4.35;1.98;;;;;;;;;;5019898;28;95709;-72
2022/06/14 21:30:49;;;;;;;3.13;1.90;;;;;;;;;;5024605;28;97081;-72
2022/06/14 21:33:16;;;;;;;5.47;2.08;;;;;;;;;;5030944;27;96924;-72
2022/06/14 21:35:49;;;;;;;3.85;2.08;;;;;;;;;;5031874;27;95383;-72
2022/06/14 21:38:17;;;;;;;3.22;1.98;;;;;;;;;;5030759;27;95960;-72
2022/06/14 21:41:02;;;;;;;5.70;2.42;;;;;;;;;;5034170;28;95394;-72
2022/06/14 21:43:28;;;;;;;4.30;2.10;;;;;;;;;;5028605;27;97436;-72
2022/06/14 21:45:56;;;;;;;3.78;2.15;;;;;;;;;;5028321;27;97253;-72
2022/06/14 21:48:24;;;;;;;4.40;2.00;;;;;;;;;;5031505;27;95473;-72
2022/06/14 21:50:56;;;;;;;3.60;2.22;;;;;;;;;;5029908;28;95373;-72
2022/06/14 21:53:23;;;;;;;;;;;;;;;;;;5031736;28;97699;-72
2022/06/14 21:55:54;;;;;;;3.50;1.92;;;;;;;;;;5030088;28;117716;-72
2022/06/14 21:58:22;;;;;;;4.80;2.20;;;;;;;;;;5032123;28;96724;-72
2022/06/14 22:00:51;;;;;;;4.43;2.05;;;;;;;;;;5032737;27;96229;-72
2022/06/14 22:03:27;;;;;;;3.35;2.13;;;;;;;;;;5030608;28;96781;-73
2022/06/14 22:05:57;;;;;;;5.45;2.53;;;;;;;;;;5030062;28;97385;-73
2022/06/14 22:08:24;;;;;;;4.45;2.53;;;;;;;;;;5028360;27;95319;-72
2022/06/14 22:10:51;;;;;;;5.50;2.75;;;;;;;;;;5030260;28;96746;-72
2022/06/14 22:13:18;;;;;;;5.43;2.67;;;;;;;;;;5024228;27;97589;-72
2022/06/14 22:15:45;;;;;;;4.50;2.35;;;;;;;;;;5017175;27;95430;-72
2022/06/14 22:18:13;;;;;;;5.72;2.60;;;;;;;;;;5029476;28;96893;-72
2022/06/14 22:20:40;;;;;;;3.38;2.20;;;;;;;;;;5030211;28;97820;-72
2022/06/14 22:23:06;;;;;;;3.83;2.38;;;;;;;;;;5033785;28;95834;-72
2022/06/14 22:25:35;;;;;;;4.18;2.35;;;;;;;;;;5030619;28;97310;-72
2022/06/14 22:28:01;;;;;;;3.45;2.28;;;;;;;;;;5028016;27;96209;-72
2022/06/14 22:30:29;;;;;;;4.20;2.47;;;;;;;;;;5030153;27;97183;-72
2022/06/14 22:32:56;;;;;;;7.65;2.55;;;;;;;;;;5031208;27;97694;-72
2022/06/14 22:35:23;;;;;;;4.32;2.58;;;;;;;;;;5030096;28;95430;-72
2022/06/14 22:37:49;;;;;;;5.38;2.58;;;;;;;;;;5029870;27;97106;-72
2022/06/14 22:40:15;;;;;;;3.80;2.33;;;;;;;;;;5029786;28;97272;-72
2022/06/14 22:42:43;;;;;;;5.45;2.60;;;;;;;;;;5025678;28;95918;-72
2022/06/14 22:45:17;;;;;;;4.55;2.45;;;;;;;;;;5022142;28;96781;-72
2022/06/14 22:47:44;;;;;;;6.78;2.80;;;;;;;;;;5029078;27;95468;-72
2022/06/14 22:50:11;;;;;;;6.13;3.25;;;;;;;;;;5030200;27;95685;-73
2022/06/14 22:52:37;;;;;;;6.40;2.60;;;;;;;;;;5029003;28;97371;-72
2022/06/14 22:55:04;;;;;;;4.07;2.45;;;;;;;;;;5030976;28;95471;-73
2022/06/14 22:57:31;;;;;;;5.10;2.78;;;;;;;;;;5028449;28;96694;-72
2022/06/14 22:59:57;;;;;;;5.82;2.78;;;;;;;;;;5029854;28;97470;-72
2022/06/14 23:02:24;;;;;;;3.75;2.47;;;;;;;;;;5029879;27;95210;-72
2022/06/14 23:04:50;;;;;;;3.55;2.47;;;;;;;;;;5010520;28;96534;-72
2022/06/14 23:07:17;;;;;;;6.05;3.30;;;;;;;;;;5017499;28;97331;-72
2022/06/14 23:09:43;;;;;;;5.68;2.90;;;;;;;;;;5010806;28;96816;-72
2022/06/14 23:12:10;;;;;;;5.22;2.50;;;;;;;;;;5028199;28;97273;-72
2022/06/14 23:14:36;;;;;;;4.90;2.60;;;;;;;;;;5028447;27;95154;-72
2022/06/14 23:17:03;;;;;;;4.22;2.65;;;;;;;;;;5029513;28;96906;-72
2022/06/14 23:19:29;;;;;;;5.38;2.70;;;;;;;;;;5030365;27;97251;-72
2022/06/14 23:21:55;;;;;;;5.43;2.90;;;;;;;;;;5029860;28;95621;-72
2022/06/14 23:24:22;;;;;;;6.32;2.58;;;;;;;;;;5019975;28;95802;-72
2022/06/14 23:26:49;;;;;;;7.38;3.08;;;;;;;;;;5024252;28;97305;-72
2022/06/14 23:29:17;;;;;;;4.45;2.78;;;;;;;;;;5031942;28;95391;-72
2022/06/14 23:31:44;;;;;;;6.32;2.60;;;;;;;;;;5030134;28;97298;-73
2022/06/14 23:34:12;;;;;;;6.85;3.00;;;;;;;;;;5030628;27;95438;-72
2022/06/14 23:36:38;;;;;;;7.50;2.78;;;;;;;;;;5028199;28;96450;-72
2022/06/14 23:39:10;;;;;;;7.13;3.08;;;;;;;;;;5010000;28;97871;-72
2022/06/14 23:41:37;;;;;;;3.92;2.50;;;;;;;;;;5029508;27;95437;-72
2022/06/14 23:44:07;;;;;;;4.35;2.85;;;;;;;;;;5029917;28;97093;-72
2022/06/14 23:46:34;;;;;;;5.72;2.72;;;;;;;;;;5026870;27;97339;-72
2022/06/14 23:49:00;;;;;;;5.13;2.75;;;;;;;;;;5032423;27;95616;-72
2022/06/14 23:51:27;;;;;;;4.90;3.00;;;;;;;;;;5028808;28;97364;-72
2022/06/14 23:53:53;;;;;;;5.40;2.90;;;;;;;;;;5027505;28;95358;-72
2022/06/14 23:56:20;;;;;;;5.50;2.60;;;;;;;;;;5029375;28;96597;-72
2022/06/14 23:58:46;;;;;;;4.45;2.53;;;;;;;;;;5028691;28;97334;-72
